Terminal Aerodrome Forecast
Issued by NWS Huntsville, AL

Home | Current Version | Previous Version | Text Only | Print | Product List | Glossary On
Versions: 1 2 3 4 5 6 7 8 9 10 11 12 13
000
FTUS44 KHUN 272335
TAFMSL
TAF
KMSL 272335Z 2800/2824 14010KT P6SM SCT020 BKN200
     FM280300 15009KT 5SM BR OVC015
     FM281100 17009KT P6SM OVC008
     FM281600 19014KT 5SM -SHRA BKN010 OVC100
     FM282100 19012KT P6SM OVC010=

USA.gov is the U.S. government's official web portal to all federal, state and local government web resources and services.